Time;durP1;ratioP1;P1;durP2;ratioP2;P2;SDS_P1;SDS_P2;PMS_P1;PMS_P2;Temp;Humidity;BMP_temperature;BMP_pressure;BME280_temperature;BME280_humidity;BME280_pressure;Samples;Min_cycle;Max_cycle;Signal;HPM_P1;HPM_P2
2023/12/18 00:01:00;;;;;;;28.77;5.97;;;4.40;99.90;;;;;;5058887;28;20173;-81
2023/12/18 00:03:30;;;;;;;27.97;5.50;;;4.40;99.90;;;;;;5058842;28;20170;-81
2023/12/18 00:05:56;;;;;;;28.83;6.13;;;4.50;99.90;;;;;;5058201;28;20192;-82
2023/12/18 00:08:21;;;;;;;27.87;6.07;;;4.60;99.90;;;;;;5058602;28;20170;-81
2023/12/18 00:10:47;;;;;;;28.80;6.63;;;4.70;99.90;;;;;;5040626;28;20193;-81
2023/12/18 00:13:13;;;;;;;27.43;5.70;;;4.50;99.90;;;;;;5041474;28;20165;-81
2023/12/18 00:15:38;;;;;;;26.83;6.20;;;4.50;99.90;;;;;;5040623;28;20216;-81
2023/12/18 00:18:04;;;;;;;28.17;6.27;;;4.40;99.90;;;;;;5058352;28;20653;-81
2023/12/18 00:20:30;;;;;;;25.47;5.17;;;4.40;99.90;;;;;;5040253;28;20179;-81
2023/12/18 00:22:56;;;;;;;26.97;5.97;;;4.30;99.90;;;;;;5040635;28;20427;-81
2023/12/18 00:25:21;;;;;;;28.17;5.90;;;4.20;99.90;;;;;;5058338;28;20185;-81
2023/12/18 00:27:47;;;;;;;26.83;5.90;;;4.20;99.90;;;;;;5039973;28;20543;-81
2023/12/18 00:30:13;;;;;;;27.47;6.00;;;4.10;99.90;;;;;;5040346;28;20165;-81
2023/12/18 00:32:38;;;;;;;30.90;7.03;;;4.10;99.90;;;;;;5058039;28;20541;-81
2023/12/18 00:35:04;;;;;;;29.40;5.63;;;4.00;99.90;;;;;;5057851;28;20836;-81
2023/12/18 00:37:30;;;;;;;35.20;6.50;;;3.90;99.90;;;;;;5058097;28;20216;-81
2023/12/18 00:39:56;;;;;;;26.90;5.47;;;3.80;99.90;;;;;;5058420;28;20399;-81
2023/12/18 00:42:22;;;;;;;32.58;6.80;;;3.80;99.90;;;;;;5057724;28;20184;-81
2023/12/18 00:44:47;;;;;;;28.20;6.73;;;3.60;99.90;;;;;;5057674;28;20189;-81
2023/12/18 00:47:13;;;;;;;28.90;6.93;;;3.60;99.90;;;;;;5057246;28;20196;-81
2023/12/18 00:49:39;;;;;;;28.77;6.50;;;3.60;99.90;;;;;;5039649;28;20554;-81
2023/12/18 00:52:04;;;;;;;29.10;6.87;;;3.50;99.90;;;;;;5040054;28;20201;-82
2023/12/18 00:54:30;;;;;;;29.10;5.30;;;3.40;99.90;;;;;;5058792;28;20535;-81
2023/12/18 00:56:56;;;;;;;26.37;5.70;;;3.40;99.90;;;;;;5058374;28;20404;-81
2023/12/18 00:59:21;;;;;;;27.17;6.57;;;3.30;99.90;;;;;;5057430;28;20197;-81
2023/12/18 01:01:47;;;;;;;27.30;6.80;;;3.20;99.90;;;;;;5057763;28;20189;-81
2023/12/18 01:04:13;;;;;;;26.20;6.00;;;3.20;99.90;;;;;;5057515;28;20189;-81
2023/12/18 01:06:39;;;;;;;27.60;6.10;;;3.20;99.90;;;;;;5058109;28;20169;-81
2023/12/18 01:09:05;;;;;;;25.20;4.87;;;3.20;99.90;;;;;;5057317;28;20436;-81
2023/12/18 01:11:30;;;;;;;33.70;6.47;;;3.20;99.90;;;;;;5057370;28;20200;-81
2023/12/18 01:13:56;;;;;;;27.83;6.00;;;3.10;99.90;;;;;;5039299;28;20165;-81
2023/12/18 01:16:22;;;;;;;28.70;5.60;;;3.10;99.90;;;;;;5038973;28;20168;-81
2023/12/18 01:18:47;;;;;;;27.73;6.63;;;3.00;99.90;;;;;;5057553;28;20161;-81
2023/12/18 01:21:14;;;;;;;26.30;6.80;;;3.00;99.90;;;;;;5057233;28;20191;-81
2023/12/18 01:23:40;;;;;;;28.13;6.90;;;3.00;99.90;;;;;;5039631;28;20172;-81
2023/12/18 01:26:09;;;;;;;26.10;5.63;;;3.00;99.90;;;;;;5057475;28;20168;-81
2023/12/18 01:28:34;;;;;;;25.63;5.65;;;3.00;99.90;;;;;;5057268;28;20161;-81
2023/12/18 01:31:00;;;;;;;28.73;6.60;;;2.90;99.90;;;;;;5057411;28;20189;-80
2023/12/18 01:33:26;;;;;;;26.43;6.33;;;2.90;99.90;;;;;;5038647;28;20183;-80
2023/12/18 01:35:51;;;;;;;26.27;6.17;;;2.90;99.90;;;;;;5038640;28;20570;-80
2023/12/18 01:38:17;;;;;;;30.20;7.20;;;2.90;99.90;;;;;;5056528;28;20574;-81
2023/12/18 01:40:44;;;;;;;25.50;5.83;;;2.90;99.90;;;;;;5056293;28;20180;-81
2023/12/18 01:43:26;;;;;;;26.30;5.95;;;2.90;99.90;;;;;;5057149;28;20320;-81
2023/12/18 01:45:59;;;;;;;27.95;6.53;;;2.90;99.90;;;;;;5039211;28;20220;-81
2023/12/18 01:48:27;;;;;;;31.77;7.40;;;2.90;99.90;;;;;;5057476;28;20240;-80
2023/12/18 01:50:57;;;;;;;29.08;7.13;;;2.80;99.90;;;;;;5056930;28;20189;-81
2023/12/18 01:53:39;;;;;;;31.35;7.60;;;2.70;99.90;;;;;;5057747;28;20625;-81
2023/12/18 01:56:06;;;;;;;27.55;6.15;;;2.60;99.90;;;;;;5056769;28;20185;-80
2023/12/18 01:58:34;;;;;;;30.48;7.25;;;2.60;99.90;;;;;;5039398;28;20174;-83
2023/12/18 02:01:00;;;;;;;28.77;7.13;;;2.70;99.90;;;;;;5038473;28;20173;-80
2023/12/18 02:03:28;;;;;;;26.38;6.35;;;2.60;99.90;;;;;;5056511;28;20166;-81
2023/12/18 02:05:55;;;;;;;26.17;6.00;;;2.50;99.90;;;;;;5056706;28;20550;-81
2023/12/18 02:08:21;;;;;;;27.02;7.47;;;2.50;99.90;;;;;;5057190;28;20569;-81
2023/12/18 02:10:47;;;;;;;26.77;6.30;;;2.50;99.90;;;;;;5056065;28;20200;-81
2023/12/18 02:13:12;;;;;;;28.83;6.60;;;2.40;99.90;;;;;;5056789;28;20188;-80
2023/12/18 02:15:39;;;;;;;27.50;6.87;;;2.40;99.90;;;;;;5056955;28;20181;-81
2023/12/18 02:18:05;;;;;;;26.35;5.70;;;2.40;99.90;;;;;;5056706;28;20161;-81
2023/12/18 02:20:32;;;;;;;26.30;6.50;;;2.50;99.90;;;;;;5057165;28;20169;-81
2023/12/18 02:22:58;;;;;;;26.65;6.28;;;2.30;99.90;;;;;;5056683;28;20877;-81
2023/12/18 02:25:24;;;;;;;25.70;5.87;;;2.30;99.90;;;;;;5056531;28;20209;-80
2023/12/18 02:27:50;;;;;;;26.07;5.93;;;2.30;99.90;;;;;;5038786;28;20181;-80
2023/12/18 02:30:17;;;;;;;25.45;6.80;;;2.20;99.90;;;;;;5038352;28;20176;-81
2023/12/18 02:32:43;;;;;;;23.48;4.78;;;2.20;99.90;;;;;;5056643;28;20189;-81
2023/12/18 02:35:09;;;;;;;31.02;6.53;;;2.20;99.90;;;;;;5038339;28;20204;-80
2023/12/18 02:37:35;;;;;;;27.25;7.35;;;2.20;99.90;;;;;;5038667;28;20271;-80
2023/12/18 02:40:01;;;;;;;29.30;8.10;;;2.10;99.90;;;;;;5056213;28;20196;-80
2023/12/18 02:42:27;;;;;;;26.52;6.85;;;2.10;99.90;;;;;;5056737;28;20408;-81
2023/12/18 02:44:54;;;;;;;29.73;6.40;;;2.00;99.90;;;;;;5056333;28;20215;-81
2023/12/18 02:47:20;;;;;;;28.67;6.43;;;2.00;99.90;;;;;;5038464;28;20640;-80
2023/12/18 02:49:45;;;;;;;25.00;5.73;;;2.00;99.90;;;;;;5039048;28;20173;-81
2023/12/18 02:52:11;;;;;;;24.43;5.67;;;2.00;99.90;;;;;;5041917;28;20284;-79
2023/12/18 02:54:37;;;;;;;25.67;5.93;;;2.00;99.90;;;;;;5041737;28;20193;-80
2023/12/18 02:57:06;;;;;;;25.33;6.22;;;2.00;99.90;;;;;;5041926;28;20169;-80
2023/12/18 02:59:31;;;;;;;26.38;6.45;;;2.00;99.90;;;;;;5041886;28;20268;-80
2023/12/18 03:01:57;;;;;;;28.60;7.07;;;1.90;99.90;;;;;;5041632;28;20642;-81
2023/12/18 03:04:23;;;;;;;31.50;7.57;;;1.80;99.90;;;;;;5059661;28;20720;-80
2023/12/18 03:06:49;;;;;;;26.03;6.43;;;1.90;99.90;;;;;;5059021;28;20427;-80
2023/12/18 03:09:15;;;;;;;26.10;6.47;;;1.90;99.90;;;;;;5059184;28;20915;-80
2023/12/18 03:11:41;;;;;;;26.27;5.65;;;1.80;99.90;;;;;;5059406;28;20454;-81
2023/12/18 03:14:11;;;;;;;25.20;5.32;;;1.80;99.90;;;;;;5042011;28;20558;-80
2023/12/18 03:16:37;;;;;;;23.90;5.15;;;1.80;99.90;;;;;;5059647;28;20191;-81
2023/12/18 03:19:03;;;;;;;27.05;6.07;;;1.70;99.90;;;;;;5059263;28;20191;-81
2023/12/18 03:21:28;;;;;;;26.97;5.93;;;1.80;99.90;;;;;;5041369;28;20259;-81
2023/12/18 03:23:54;;;;;;;24.30;6.37;;;1.80;99.90;;;;;;5041389;28;20411;-80
2023/12/18 03:26:20;;;;;;;23.50;5.20;;;1.80;99.90;;;;;;5059231;28;20180;-80
2023/12/18 03:28:46;;;;;;;26.37;6.90;;;1.80;99.90;;;;;;5059838;28;20194;-82
2023/12/18 03:31:11;;;;;;;23.80;5.77;;;1.80;99.90;;;;;;5059073;28;20253;-83
2023/12/18 03:33:38;;;;;;;25.73;6.60;;;1.80;99.90;;;;;;5059143;28;20468;-80
2023/12/18 03:36:04;;;;;;;28.25;6.65;;;1.70;99.90;;;;;;5058975;28;20596;-81
2023/12/18 03:38:30;;;;;;;23.80;5.68;;;1.60;99.90;;;;;;5058681;28;20162;-80
2023/12/18 03:40:56;;;;;;;23.45;5.60;;;1.60;99.90;;;;;;5059115;28;20168;-81
2023/12/18 03:43:25;;;;;;;23.83;5.00;;;1.50;99.90;;;;;;5059521;28;20254;-82
2023/12/18 03:45:51;;;;;;;24.08;5.45;;;1.50;99.90;;;;;;5040915;28;20231;-80
2023/12/18 03:48:18;;;;;;;27.53;6.37;;;1.50;99.90;;;;;;5058871;28;20642;-82
2023/12/18 03:50:44;;;;;;;23.52;5.25;;;1.50;99.90;;;;;;5059206;28;20438;-83
2023/12/18 03:53:10;;;;;;;22.42;5.13;;;1.50;99.90;;;;;;5041334;28;20198;-82
2023/12/18 03:55:36;;;;;;;26.60;6.70;;;1.50;99.90;;;;;;5058968;28;20259;-83
2023/12/18 03:58:02;;;;;;;24.42;6.07;;;1.40;99.90;;;;;;5058490;28;20409;-82
2023/12/18 04:00:27;;;;;;;23.88;5.70;;;1.50;99.90;;;;;;5058703;28;20661;-82
2023/12/18 04:02:53;;;;;;;27.90;5.50;;;1.50;99.90;;;;;;5058141;28;20165;-82
2023/12/18 04:05:19;;;;;;;23.50;5.53;;;1.50;99.90;;;;;;5040449;28;20713;-82
2023/12/18 04:07:45;;;;;;;23.47;6.00;;;1.50;99.90;;;;;;5058140;28;20256;-83
2023/12/18 04:10:10;;;;;;;25.50;5.63;;;1.50;99.90;;;;;;5058805;28;20524;-82
2023/12/18 04:12:37;;;;;;;23.57;4.63;;;1.40;99.90;;;;;;5058373;28;20160;-82
2023/12/18 04:15:04;;;;;;;23.70;5.25;;;1.40;99.90;;;;;;5058000;28;20437;-82
2023/12/18 04:17:30;;;;;;;25.75;6.30;;;1.40;99.90;;;;;;5040379;28;20165;-82
2023/12/18 04:19:55;;;;;;;26.10;5.90;;;1.50;99.90;;;;;;5058674;28;20649;-82
2023/12/18 04:22:21;;;;;;;26.40;6.07;;;1.60;99.90;;;;;;5058273;28;20418;-82
2023/12/18 04:24:47;;;;;;;25.87;6.10;;;1.60;99.90;;;;;;5058186;28;20189;-82
2023/12/18 04:27:12;;;;;;;24.90;6.87;;;1.60;99.90;;;;;;5057538;28;20160;-82
2023/12/18 04:29:38;;;;;;;24.73;5.80;;;1.60;99.90;;;;;;5057826;28;20637;-82
2023/12/18 04:32:07;;;;;;;27.07;6.30;;;1.50;99.90;;;;;;5040411;28;20197;-82
2023/12/18 04:34:33;;;;;;;26.55;5.80;;;1.60;99.90;;;;;;5057924;28;20956;-83
2023/12/18 04:37:01;;;;;;;26.10;5.93;;;1.50;99.90;;;;;;5058345;28;20185;-82
2023/12/18 04:39:26;;;;;;;26.08;6.25;;;1.50;99.90;;;;;;5039840;28;20238;-82
2023/12/18 04:41:52;;;;;;;23.83;5.40;;;1.40;99.90;;;;;;5040096;28;20181;-83
2023/12/18 04:44:18;;;;;;;24.90;5.80;;;1.40;99.90;;;;;;5057861;28;20704;-82
2023/12/18 04:46:43;;;;;;;26.23;6.10;;;1.30;99.90;;;;;;5057898;28;20175;-82
2023/12/18 04:49:09;;;;;;;23.37;5.50;;;1.30;99.90;;;;;;5057653;28;20175;-82
2023/12/18 04:51:35;;;;;;;23.20;5.00;;;1.30;99.90;;;;;;5039266;28;20189;-82
2023/12/18 04:54:01;;;;;;;24.23;5.20;;;1.30;99.90;;;;;;5039755;28;20562;-82
2023/12/18 04:56:27;;;;;;;23.50;4.90;;;1.20;99.90;;;;;;5058335;28;20166;-81
2023/12/18 04:58:53;;;;;;;26.37;5.77;;;1.20;99.90;;;;;;5057689;28;20158;-82
2023/12/18 05:01:22;;;;;;;23.95;5.40;;;1.10;99.90;;;;;;5038914;28;20258;-82
2023/12/18 05:03:47;;;;;;;27.67;6.00;;;1.10;99.90;;;;;;5057365;28;20661;-81
2023/12/18 05:06:19;;;;;;;26.17;6.57;;;1.20;99.90;;;;;;5057675;28;20199;-82
2023/12/18 05:08:45;;;;;;;24.83;4.95;;;1.20;99.90;;;;;;5057271;28;20199;-82
2023/12/18 05:11:11;;;;;;;29.57;7.07;;;1.10;99.90;;;;;;5057439;28;20686;-82
2023/12/18 05:13:37;;;;;;;31.30;7.27;;;1.10;99.90;;;;;;5039363;28;20415;-81
2023/12/18 05:16:02;;;;;;;24.33;5.13;;;1.10;99.90;;;;;;5057237;28;20192;-81
2023/12/18 05:18:28;;;;;;;24.13;5.70;;;1.10;99.90;;;;;;5038998;28;20195;-82
2023/12/18 05:20:57;;;;;;;23.70;5.50;;;1.10;99.90;;;;;;5038941;28;20502;-81
2023/12/18 05:23:23;;;;;;;25.58;5.32;;;1.20;99.90;;;;;;5039232;28;20184;-82
2023/12/18 05:25:49;;;;;;;25.15;6.25;;;1.30;99.90;;;;;;5039356;28;20195;-82
2023/12/18 05:28:15;;;;;;;24.83;6.05;;;1.10;99.90;;;;;;5057250;28;20174;-81
2023/12/18 05:30:41;;;;;;;23.47;5.43;;;1.20;99.90;;;;;;5039486;28;20559;-82
2023/12/18 05:33:06;;;;;;;22.40;5.60;;;1.20;99.90;;;;;;5039774;28;20161;-82
2023/12/18 05:35:32;;;;;;;29.83;5.90;;;1.10;99.90;;;;;;5039020;28;20193;-82
2023/12/18 05:37:58;;;;;;;29.03;6.30;;;1.00;99.90;;;;;;5057208;28;20203;-82
2023/12/18 05:40:23;;;;;;;24.50;5.90;;;1.00;99.90;;;;;;5056822;28;20160;-82
2023/12/18 05:42:50;;;;;;;25.00;5.90;;;1.00;99.90;;;;;;5057220;28;20168;-82
2023/12/18 05:45:16;;;;;;;25.25;6.00;;;1.00;99.90;;;;;;5056954;28;20188;-82
2023/12/18 05:47:41;;;;;;;27.88;6.80;;;1.10;99.90;;;;;;5056895;28;20170;-82
2023/12/18 05:50:07;;;;;;;23.20;5.30;;;1.00;99.90;;;;;;5039290;28;20540;-82
2023/12/18 05:52:33;;;;;;;23.20;5.68;;;1.00;99.90;;;;;;5038870;28;20197;-82
2023/12/18 05:54:59;;;;;;;25.40;5.70;;;1.00;99.90;;;;;;5056910;28;20184;-82
2023/12/18 05:57:25;;;;;;;28.17;6.43;;;0.90;99.90;;;;;;5057002;28;20165;-81
2023/12/18 05:59:50;;;;;;;26.40;5.43;;;0.90;99.90;;;;;;5057045;28;20165;-81
2023/12/18 06:02:16;;;;;;;23.33;4.87;;;0.90;99.90;;;;;;5038563;28;20176;-81
2023/12/18 06:04:43;;;;;;;25.50;5.80;;;0.90;99.90;;;;;;5056932;28;20211;-82
2023/12/18 06:07:10;;;;;;;22.58;5.22;;;0.90;99.90;;;;;;5056659;28;20531;-81
2023/12/18 06:09:36;;;;;;;24.10;5.20;;;0.90;99.90;;;;;;5056647;28;20173;-81
2023/12/18 06:12:02;;;;;;;25.00;6.18;;;0.90;99.90;;;;;;5039336;28;20268;-82
2023/12/18 06:14:27;;;;;;;25.30;5.50;;;0.90;99.90;;;;;;5056337;28;20181;-82
2023/12/18 06:16:53;;;;;;;25.47;5.90;;;0.80;99.90;;;;;;5056706;28;20489;-81
2023/12/18 06:19:19;;;;;;;25.90;6.33;;;0.80;99.90;;;;;;5056490;28;20207;-81
2023/12/18 06:21:45;;;;;;;28.57;6.07;;;0.90;99.90;;;;;;5038753;28;20165;-81
2023/12/18 06:24:10;;;;;;;26.83;6.60;;;0.80;99.90;;;;;;5056777;28;20189;-81
2023/12/18 06:26:36;;;;;;;27.40;6.00;;;0.80;99.90;;;;;;5042173;28;20413;-81
2023/12/18 06:29:02;;;;;;;21.83;5.40;;;0.80;99.90;;;;;;5060297;28;20165;-81
2023/12/18 06:31:27;;;;;;;24.60;6.23;;;0.80;99.90;;;;;;5060507;28;20184;-81
2023/12/18 06:33:53;;;;;;;25.50;6.40;;;0.80;99.90;;;;;;5042523;28;20661;-81
2023/12/18 06:36:19;;;;;;;22.80;6.00;;;0.80;99.90;;;;;;5060037;28;20240;-81
2023/12/18 06:38:45;;;;;;;27.55;6.00;;;0.80;99.90;;;;;;5059800;28;20682;-81
2023/12/18 06:41:11;;;;;;;30.00;6.40;;;0.80;99.90;;;;;;5041954;28;20177;-81
2023/12/18 06:43:37;;;;;;;28.67;6.40;;;0.90;99.90;;;;;;5059218;28;20247;-81
2023/12/18 06:46:04;;;;;;;22.67;5.43;;;1.00;99.90;;;;;;5042128;28;20195;-81
2023/12/18 06:48:30;;;;;;;26.25;6.55;;;1.00;99.90;;;;;;5041835;28;20551;-81
2023/12/18 06:50:56;;;;;;;26.13;5.80;;;0.90;99.90;;;;;;5042206;28;20669;-81
2023/12/18 06:53:22;;;;;;;27.08;6.55;;;0.80;99.90;;;;;;5041923;28;20183;-81
2023/12/18 06:55:47;;;;;;;25.53;6.20;;;0.80;99.90;;;;;;5059781;28;20180;-81
2023/12/18 06:58:13;;;;;;;29.93;8.10;;;0.70;99.90;;;;;;5041793;28;20162;-81
2023/12/18 07:00:39;;;;;;;28.13;7.70;;;0.70;99.90;;;;;;5059750;28;20242;-81
2023/12/18 07:03:04;;;;;;;26.10;6.67;;;0.70;99.90;;;;;;5041859;28;20232;-81
2023/12/18 07:05:30;;;;;;;28.13;6.93;;;0.70;99.90;;;;;;5041770;28;20607;-81
2023/12/18 07:07:57;;;;;;;26.80;6.07;;;0.70;99.90;;;;;;5059706;28;20165;-81
2023/12/18 07:10:22;;;;;;;25.92;6.68;;;0.70;99.90;;;;;;5058923;28;20173;-81
2023/12/18 07:12:48;;;;;;;24.40;5.77;;;0.70;99.90;;;;;;5041744;28;20240;-81
2023/12/18 07:15:14;;;;;;;40.40;6.70;;;0.60;99.90;;;;;;5058514;28;20492;-81
2023/12/18 07:17:40;;;;;;;29.92;7.00;;;0.70;99.90;;;;;;5041502;28;20169;-81
2023/12/18 07:20:08;;;;;;;36.67;6.93;;;0.70;99.90;;;;;;5041549;28;20541;-81
2023/12/18 07:22:34;;;;;;;27.83;6.57;;;0.70;99.90;;;;;;5041569;28;20411;-81
2023/12/18 07:25:00;;;;;;;24.20;6.07;;;0.60;99.90;;;;;;5040550;28;20199;-81
2023/12/18 07:27:26;;;;;;;27.65;7.35;;;0.60;99.90;;;;;;5041517;28;20173;-81
2023/12/18 07:29:52;;;;;;;26.27;5.23;;;0.60;99.90;;;;;;5041088;28;20175;-81
2023/12/18 07:32:20;;;;;;;25.37;6.07;;;0.50;99.90;;;;;;5059182;28;20602;-81
2023/12/18 07:34:46;;;;;;;28.55;7.07;;;0.60;99.90;;;;;;5059241;28;20659;-81
2023/12/18 07:37:12;;;;;;;27.13;6.97;;;0.60;99.90;;;;;;5057563;28;20194;-81
2023/12/18 07:39:38;;;;;;;28.77;6.70;;;0.60;99.90;;;;;;5040933;28;20196;-81
2023/12/18 07:42:04;;;;;;;29.87;6.63;;;0.60;99.90;;;;;;5058678;28;20172;-81
2023/12/18 07:44:30;;;;;;;25.67;6.53;;;0.70;99.90;;;;;;5059045;28;20199;-81
2023/12/18 07:46:56;;;;;;;27.23;7.47;;;0.70;99.90;;;;;;5041567;28;20449;-81
2023/12/18 07:49:22;;;;;;;29.93;6.80;;;0.70;99.90;;;;;;5040547;28;20182;-81
2023/12/18 07:51:48;;;;;;;29.55;6.88;;;0.70;99.90;;;;;;5059172;28;20210;-81
2023/12/18 07:54:14;;;;;;;30.90;7.60;;;0.80;99.90;;;;;;5041124;28;20191;-81
2023/12/18 07:56:40;;;;;;;25.85;7.18;;;0.70;99.90;;;;;;5058694;28;20165;-81
2023/12/18 07:59:07;;;;;;;26.03;7.60;;;0.70;99.90;;;;;;5058862;28;20168;-81
2023/12/18 08:01:34;;;;;;;27.77;7.60;;;0.80;99.90;;;;;;5040775;28;20421;-81
2023/12/18 08:04:00;;;;;;;24.38;6.30;;;0.80;99.90;;;;;;5040923;28;20249;-81
2023/12/18 08:06:25;;;;;;;26.77;6.43;;;0.80;99.90;;;;;;5058631;28;20199;-81
2023/12/18 08:08:51;;;;;;;31.37;7.47;;;0.80;99.90;;;;;;5040073;28;20450;-81
2023/12/18 08:11:17;;;;;;;27.87;7.93;;;0.80;99.90;;;;;;5040548;28;20193;-81
2023/12/18 08:13:43;;;;;;;29.47;7.60;;;0.90;99.90;;;;;;5039715;28;20542;-81
2023/12/18 08:16:10;;;;;;;38.95;8.13;;;1.00;99.90;;;;;;5040312;28;20173;-81
2023/12/18 08:18:36;;;;;;;30.80;7.10;;;1.00;99.90;;;;;;5040280;28;20168;-81
2023/12/18 08:21:03;;;;;;;27.20;7.10;;;1.00;99.90;;;;;;5040167;28;20176;-81
2023/12/18 08:23:28;;;;;;;29.80;7.82;;;0.90;99.90;;;;;;5058375;28;20179;-81
2023/12/18 08:25:54;;;;;;;41.53;7.70;;;0.90;99.90;;;;;;5040228;28;20185;-81
2023/12/18 08:28:20;;;;;;;29.00;8.00;;;0.90;99.90;;;;;;5039742;28;20171;-81
2023/12/18 08:30:46;;;;;;;26.77;8.70;;;1.00;99.90;;;;;;5057746;28;20188;-81
2023/12/18 08:33:12;;;;;;;29.17;8.63;;;0.90;99.90;;;;;;5058286;28;20176;-81
2023/12/18 08:35:37;;;;;;;27.05;7.85;;;1.00;99.90;;;;;;5040204;28;20699;-81
2023/12/18 08:38:03;;;;;;;27.37;8.53;;;1.00;99.90;;;;;;5039990;28;20184;-81
2023/12/18 08:40:31;;;;;;;31.00;8.77;;;1.10;99.90;;;;;;5057280;28;20175;-81
2023/12/18 08:42:57;;;;;;;29.27;7.93;;;1.10;99.90;;;;;;5040174;28;20414;-81
2023/12/18 08:45:26;;;;;;;28.37;7.70;;;1.20;99.90;;;;;;5040056;28;20681;-81
2023/12/18 08:47:59;;;;;;;29.70;8.15;;;1.20;99.90;;;;;;5039820;28;20185;-81
2023/12/18 08:50:25;;;;;;;27.80;7.97;;;1.30;99.90;;;;;;5039860;28;20157;-81
2023/12/18 08:52:51;;;;;;;25.92;7.82;;;1.20;99.90;;;;;;5057880;28;20177;-81
2023/12/18 08:55:17;;;;;;;27.60;7.13;;;1.20;99.90;;;;;;5057695;28;20177;-81
2023/12/18 08:57:45;;;;;;;28.30;8.43;;;1.30;99.90;;;;;;5039496;28;20195;-81
2023/12/18 09:00:13;;;;;;;28.75;9.25;;;1.30;99.90;;;;;;5039406;28;20226;-81
2023/12/18 09:02:38;;;;;;;31.95;8.07;;;1.30;99.90;;;;;;5039282;28;20173;-81
2023/12/18 09:05:04;;;;;;;32.33;9.47;;;1.40;99.90;;;;;;5057124;28;20561;-81
2023/12/18 09:07:30;;;;;;;28.45;8.27;;;1.50;99.90;;;;;;5039161;28;20191;-81
2023/12/18 09:09:56;;;;;;;34.93;9.23;;;1.50;99.90;;;;;;5057182;28;20161;-81
2023/12/18 09:12:21;;;;;;;33.30;9.87;;;1.50;99.90;;;;;;5057342;28;20199;-81
2023/12/18 09:14:48;;;;;;;35.67;9.90;;;1.50;99.90;;;;;;5057315;28;20177;-81
2023/12/18 09:17:13;;;;;;;34.58;10.57;;;1.60;99.90;;;;;;5039286;28;20167;-80
2023/12/18 09:19:39;;;;;;;30.83;9.73;;;1.60;99.90;;;;;;5057038;28;20178;-79
2023/12/18 09:22:05;;;;;;;31.57;8.20;;;1.60;99.90;;;;;;5057114;28;20173;-80
2023/12/18 09:24:35;;;;;;;29.47;8.80;;;1.50;99.90;;;;;;5056793;28;20196;-79
2023/12/18 09:27:01;;;;;;;31.85;9.52;;;1.60;99.90;;;;;;5037931;28;20900;-80
2023/12/18 09:29:26;;;;;;;36.17;9.93;;;1.60;99.90;;;;;;5056958;28;20172;-80
2023/12/18 09:31:52;;;;;;;28.47;9.07;;;1.70;99.90;;;;;;5039328;28;20221;-80
2023/12/18 09:34:18;;;;;;;35.47;8.60;;;1.80;99.90;;;;;;5056298;28;20188;-80
2023/12/18 09:36:44;;;;;;;36.23;8.10;;;1.90;99.90;;;;;;5056551;28;20168;-80
2023/12/18 09:39:10;;;;;;;34.63;9.18;;;1.90;99.90;;;;;;5057072;28;20638;-80
2023/12/18 09:41:36;;;;;;;29.50;9.48;;;2.00;99.90;;;;;;5056742;28;20171;-80
2023/12/18 09:44:01;;;;;;;33.93;10.87;;;2.00;99.90;;;;;;5056832;28;20191;-80
2023/12/18 09:46:30;;;;;;;31.50;9.80;;;2.10;99.90;;;;;;5038673;28;20238;-79
2023/12/18 09:48:55;;;;;;;33.08;10.25;;;2.20;99.90;;;;;;5056409;28;20407;-80
2023/12/18 09:51:26;;;;;;;34.83;11.10;;;2.30;99.90;;;;;;5056746;28;20239;-79
2023/12/18 09:53:53;;;;;;;35.05;11.63;;;2.30;99.90;;;;;;5056596;28;20216;-81
2023/12/18 09:56:23;;;;;;;43.60;11.23;;;2.30;99.90;;;;;;5038694;28;20176;-81
2023/12/18 09:58:49;;;;;;;38.50;12.10;;;2.40;99.90;;;;;;5056567;28;20181;-81
2023/12/18 10:01:15;;;;;;;41.10;11.60;;;2.50;99.90;;;;;;5042340;28;20180;-81
2023/12/18 10:03:41;;;;;;;40.10;11.65;;;2.50;99.90;;;;;;5042580;28;20411;-81
2023/12/18 10:06:08;;;;;;;33.65;10.32;;;2.60;99.90;;;;;;5043118;28;20180;-81
2023/12/18 10:08:34;;;;;;;36.42;11.23;;;2.70;99.90;;;;;;5042453;28;20173;-81
2023/12/18 10:11:01;;;;;;;34.72;11.70;;;2.80;99.90;;;;;;5042782;28;20193;-81
2023/12/18 10:13:27;;;;;;;35.53;11.13;;;2.80;99.90;;;;;;5060260;28;20570;-81
2023/12/18 10:15:56;;;;;;;37.55;10.45;;;2.90;99.90;;;;;;5042438;28;20188;-81
2023/12/18 10:18:23;;;;;;;37.63;10.85;;;2.90;99.90;;;;;;5042579;28;20259;-81
2023/12/18 10:20:49;;;;;;;38.50;10.27;;;3.00;99.90;;;;;;5060412;28;20175;-81
2023/12/18 10:23:15;;;;;;;37.13;11.48;;;3.10;99.90;;;;;;5042666;28;20711;-81
2023/12/18 10:25:41;;;;;;;37.78;11.38;;;3.20;99.90;;;;;;5060737;28;20185;-81
2023/12/18 10:28:10;;;;;;;37.53;12.20;;;3.30;99.90;;;;;;5061063;28;20157;-81
2023/12/18 10:30:35;;;;;;;50.47;12.30;;;3.40;99.90;;;;;;5061633;28;20165;-81
2023/12/18 10:33:05;;;;;;;41.10;12.60;;;3.40;99.90;;;;;;5043276;28;20172;-81
2023/12/18 10:35:35;;;;;;;40.90;13.95;;;3.50;99.90;;;;;;5042369;28;20431;-80
2023/12/18 10:38:02;;;;;;;35.30;12.55;;;3.60;99.90;;;;;;5041962;28;20550;-81
2023/12/18 10:40:29;;;;;;;43.35;12.02;;;3.60;99.90;;;;;;5042484;28;20227;-81
2023/12/18 10:43:24;;;;;;;37.85;12.95;;;3.70;99.90;;;;;;5041834;28;20201;-81
2023/12/18 10:45:53;;;;;;;39.05;13.50;;;3.80;99.90;;;;;;5060099;28;20181;-81
2023/12/18 10:48:20;;;;;;;38.10;11.93;;;3.80;99.90;;;;;;5042233;28;20173;-81
2023/12/18 10:50:49;;;;;;;39.97;12.65;;;3.90;99.90;;;;;;5041984;28;20616;-81
2023/12/18 10:53:17;;;;;;;35.30;11.82;;;3.90;99.90;;;;;;5042241;28;20161;-81
2023/12/18 10:55:44;;;;;;;40.38;13.02;;;4.10;99.90;;;;;;5059979;28;20554;-81
2023/12/18 10:58:11;;;;;;;37.22;12.63;;;4.10;99.90;;;;;;5042027;28;20169;-81
2023/12/18 11:00:38;;;;;;;39.80;14.00;;;4.30;99.90;;;;;;5060029;28;20165;-81
2023/12/18 11:03:05;;;;;;;38.70;13.98;;;4.40;99.90;;;;;;5042243;28;20641;-81
2023/12/18 11:05:32;;;;;;;37.63;12.52;;;4.40;99.90;;;;;;5041979;28;20193;-81
2023/12/18 11:07:58;;;;;;;40.00;11.40;;;4.30;99.90;;;;;;5041961;28;20166;-81
2023/12/18 11:10:27;;;;;;;36.53;11.48;;;4.40;99.90;;;;;;5058950;28;20211;-81
2023/12/18 11:13:20;;;;;;;39.17;11.90;;;4.50;99.90;;;;;;5041710;28;20631;-81
2023/12/18 11:16:38;;;;;;;36.75;12.70;;;4.60;99.90;;;;;;5041356;28;20216;-81
2023/12/18 11:19:21;;;;;;;34.92;11.30;;;4.60;99.90;;;;;;4978253;28;20168;-81
2023/12/18 11:21:50;;;;;;;37.25;11.65;;;4.70;99.90;;;;;;4962925;28;20191;-81
2023/12/18 11:24:17;;;;;;;38.15;11.63;;;4.70;99.90;;;;;;5009977;28;20249;-81
2023/12/18 11:26:45;;;;;;;36.22;11.80;;;4.80;99.90;;;;;;5059190;28;20173;-81
2023/12/18 11:29:34;;;;;;;35.83;11.77;;;4.80;99.90;;;;;;5041196;28;20226;-81
2023/12/18 11:31:59;;;;;;;41.05;11.90;;;4.90;99.90;;;;;;5041371;28;20196;-81
2023/12/18 11:34:25;;;;;;;32.97;11.57;;;4.90;99.90;;;;;;5041016;28;20696;-81
2023/12/18 11:36:54;;;;;;;39.00;13.00;;;4.90;99.90;;;;;;5040386;28;20216;-80
2023/12/18 11:39:27;;;;;;;36.13;11.85;;;4.90;99.90;;;;;;5058433;28;20476;-81
2023/12/18 11:41:53;;;;;;;31.92;9.77;;;4.90;99.90;;;;;;5040796;28;20530;-81
2023/12/18 11:44:21;;;;;;;36.73;10.20;;;4.90;99.90;;;;;;5041725;28;20264;-81
2023/12/18 11:46:50;;;;;;;36.20;11.48;;;4.90;99.90;;;;;;5041813;28;20181;-81
2023/12/18 11:49:17;;;;;;;35.70;10.07;;;4.80;99.90;;;;;;5059299;28;20161;-81
2023/12/18 11:51:49;;;;;;;35.35;11.52;;;4.80;99.90;;;;;;5058741;28;20252;-81
2023/12/18 11:54:15;;;;;;;37.83;10.30;;;4.90;99.90;;;;;;5041137;28;20184;-81
2023/12/18 11:56:42;;;;;;;31.90;10.10;;;4.90;99.90;;;;;;5040930;28;20251;-80
2023/12/18 11:59:09;;;;;;;31.15;10.32;;;4.80;99.90;;;;;;5040267;28;20166;-81
2023/12/18 12:01:37;;;;;;;34.55;11.13;;;4.90;99.90;;;;;;5058641;28;20171;-81
2023/12/18 12:04:03;;;;;;;32.63;10.52;;;4.80;99.90;;;;;;5040635;28;20185;-81
2023/12/18 12:06:33;;;;;;;35.50;11.07;;;4.80;99.90;;;;;;5040644;28;20173;-81
2023/12/18 12:08:59;;;;;;;31.90;10.48;;;4.90;99.90;;;;;;5040848;28;20177;-81
2023/12/18 12:11:25;;;;;;;33.47;11.63;;;4.80;99.90;;;;;;5058927;28;20192;-80
2023/12/18 12:13:54;;;;;;;35.53;12.30;;;4.80;99.90;;;;;;5058041;28;20232;-81
2023/12/18 12:16:20;;;;;;;32.92;9.75;;;4.90;99.90;;;;;;5040115;28;20404;-80
2023/12/18 12:18:50;;;;;;;35.63;12.97;;;4.90;99.90;;;;;;5058235;28;20211;-80
2023/12/18 12:21:17;;;;;;;32.17;10.05;;;4.80;99.90;;;;;;5040421;28;20411;-80
2023/12/18 12:23:46;;;;;;;33.75;11.18;;;4.80;99.90;;;;;;5039250;28;20712;-80
2023/12/18 12:26:13;;;;;;;32.45;10.55;;;4.90;99.90;;;;;;5057665;28;20248;-80
2023/12/18 12:28:42;;;;;;;34.03;10.35;;;4.90;99.90;;;;;;5040029;28;20204;-81
2023/12/18 12:31:08;;;;;;;30.08;10.02;;;4.90;99.90;;;;;;5039724;28;20204;-81
2023/12/18 12:33:44;;;;;;;35.35;10.90;;;4.90;99.90;;;;;;5057934;28;20177;-80
2023/12/18 12:36:24;;;;;;;32.47;11.40;;;4.90;99.90;;;;;;5039719;28;20212;-81
2023/12/18 12:38:52;;;;;;;32.05;11.07;;;4.90;99.90;;;;;;5039807;28;20180;-81
2023/12/18 12:41:19;;;;;;;34.20;11.10;;;4.90;99.90;;;;;;5039663;28;20187;-81
2023/12/18 12:43:45;;;;;;;34.20;10.50;;;4.90;99.90;;;;;;5040018;28;20161;-81